Time;durP1;ratioP1;P1;durP2;ratioP2;P2;SDS_P1;SDS_P2;PMS_P1;PMS_P2;Temp;Humidity;BMP_temperature;BMP_pressure;BME280_temperature;BME280_humidity;BME280_pressure;Samples;Min_cycle;Max_cycle;Signal;HPM_P1;HPM_P2
2023/11/01 00:00:46;;;;;;;11.38;4.63;;;;;;;10.65;100.00;100251.47;5092031;28;20059;-56
2023/11/01 00:03:16;;;;;;;16.90;5.20;;;;;;;10.66;100.00;100252.28;5092078;28;20048;-56
2023/11/01 00:05:46;;;;;;;12.35;4.75;;;;;;;10.64;100.00;100247.16;5091842;28;20036;-56
2023/11/01 00:08:15;;;;;;;9.32;4.55;;;;;;;10.60;100.00;100245.69;5092132;28;20081;-56
2023/11/01 00:10:46;;;;;;;13.25;5.05;;;;;;;10.56;100.00;100246.06;5089738;28;20078;-56
2023/11/01 00:13:14;;;;;;;12.40;4.63;;;;;;;10.56;100.00;100241.63;5088494;28;20043;-55
2023/11/01 00:15:42;;;;;;;12.48;4.22;;;;;;;10.56;100.00;100241.63;5088997;28;20047;-55
2023/11/01 00:18:10;;;;;;;13.95;4.95;;;;;;;10.56;100.00;100243.44;5089463;28;20463;-55
2023/11/01 00:20:40;;;;;;;11.75;4.22;;;;;;;10.57;100.00;100237.22;5092041;28;20044;-55
2023/11/01 00:23:08;;;;;;;12.50;4.50;;;;;;;10.57;100.00;100221.44;5091864;28;20047;-55
2023/11/01 00:25:37;;;;;;;18.83;4.75;;;;;;;10.56;100.00;100236.38;5091764;28;20036;-55
2023/11/01 00:28:05;;;;;;;14.93;5.13;;;;;;;10.54;100.00;100226.91;5091507;28;20044;-56
2023/11/01 00:30:33;;;;;;;13.10;4.18;;;;;;;10.54;100.00;100227.75;5088218;28;20047;-55
2023/11/01 00:33:02;;;;;;;11.07;4.45;;;;;;;10.55;100.00;100224.19;5090172;28;20052;-56
2023/11/01 00:35:30;;;;;;;13.80;4.55;;;;;;;10.56;100.00;100220.59;5091633;28;20040;-56
2023/11/01 00:38:00;;;;;;;11.43;4.78;;;;;;;10.59;100.00;100224.78;5091602;28;20047;-54
2023/11/01 00:40:28;;;;;;;11.70;4.93;;;;;;;10.54;100.00;100227.75;5091652;28;20064;-55
2023/11/01 00:42:56;;;;;;;9.88;4.40;;;;;;;10.58;100.00;100213.44;5090943;28;20511;-56
2023/11/01 00:45:24;;;;;;;11.35;5.18;;;;;;;10.56;100.00;100210.06;5088265;28;20052;-55
2023/11/01 00:47:52;;;;;;;14.50;5.18;;;;;;;10.60;100.00;100213.31;5089996;28;20060;-55
2023/11/01 00:50:20;;;;;;;13.88;4.95;;;;;;;10.57;100.00;100203.03;5091470;28;20545;-56
2023/11/01 00:52:48;;;;;;;11.98;4.95;;;;;;;10.57;100.00;100209.13;5091533;28;20051;-55
2023/11/01 00:55:18;;;;;;;11.48;4.85;;;;;;;10.56;100.00;100204.81;5091358;28;20040;-56
2023/11/01 00:57:48;;;;;;;15.35;4.80;;;;;;;10.55;100.00;100189.16;5090209;28;20044;-56
2023/11/01 01:00:17;;;;;;;12.55;4.68;;;;;;;10.58;100.00;100195.03;5091495;28;20337;-47
2023/11/01 01:02:45;;;;;;;13.70;5.88;;;;;;;10.56;100.00;100191.66;5091113;28;20048;-47
2023/11/01 01:05:14;;;;;;;10.90;4.95;;;;;;;10.57;100.00;100187.25;5094264;28;20036;-47
2023/11/01 01:07:42;;;;;;;15.23;5.35;;;;;;;10.54;100.00;100185.69;5094824;28;20048;-48
2023/11/01 01:10:10;;;;;;;13.10;4.70;;;;;;;10.57;100.00;100182.00;5094749;28;20036;-46
2023/11/01 01:12:41;;;;;;;12.18;5.10;;;;;;;10.55;100.00;100184.75;5094744;28;20040;-47
2023/11/01 01:15:10;;;;;;;10.38;5.20;;;;;;;10.58;100.00;100173.13;5094560;28;20535;-45
2023/11/01 01:17:38;;;;;;;15.68;5.40;;;;;;;10.58;100.00;100176.63;5094723;28;20056;-46
2023/11/01 01:20:07;;;;;;;13.52;4.97;;;;;;;10.63;100.00;100176.25;5094545;28;20044;-46
2023/11/01 01:22:35;;;;;;;12.75;5.25;;;;;;;10.63;100.00;100168.38;5094655;28;20463;-47
2023/11/01 01:25:05;;;;;;;11.75;4.88;;;;;;;10.65;100.00;100172.56;5094414;28;20040;-46
2023/11/01 01:27:33;;;;;;;13.18;5.30;;;;;;;10.66;100.00;100162.88;5093158;28;20514;-50
2023/11/01 01:30:03;;;;;;;15.23;4.82;;;;;;;10.64;100.00;100164.81;5094374;28;20036;-48
2023/11/01 01:32:32;;;;;;;12.38;5.38;;;;;;;10.61;100.00;100168.50;5094325;28;20048;-51
2023/11/01 01:35:00;;;;;;;12.73;5.30;;;;;;;10.65;100.00;100161.22;5092987;28;20043;-49
2023/11/01 01:37:29;;;;;;;13.63;5.20;;;;;;;10.64;100.00;100160.38;5094295;28;20063;-49
2023/11/01 01:39:57;;;;;;;12.07;5.80;;;;;;;10.57;100.00;100158.34;5094256;28;20411;-50
2023/11/01 01:42:25;;;;;;;14.57;5.47;;;;;;;10.60;100.00;100153.66;5093968;28;20451;-48
2023/11/01 01:44:53;;;;;;;14.65;5.38;;;;;;;10.58;100.00;100155.59;5093993;28;20497;-45
2023/11/01 01:47:25;;;;;;;14.02;5.20;;;;;;;10.57;100.00;100148.66;5094039;28;20052;-50
2023/11/01 01:49:54;;;;;;;14.57;5.38;;;;;;;10.62;100.00;100148.28;5094141;28;20048;-47
2023/11/01 01:52:23;;;;;;;13.35;4.75;;;;;;;10.57;100.00;100143.38;5094032;28;20083;-49
2023/11/01 01:54:51;;;;;;;12.85;5.20;;;;;;;10.58;100.00;100142.44;5094069;28;20058;-49
2023/11/01 01:57:23;;;;;;;12.63;4.70;;;;;;;10.56;100.00;100146.13;5093857;28;20406;-48
2023/11/01 01:59:52;;;;;;;16.03;4.43;;;;;;;10.58;100.00;100137.19;5093875;28;20040;-48
2023/11/01 02:02:20;;;;;;;15.82;5.30;;;;;;;10.54;100.00;100132.25;5093678;28;20071;-49
2023/11/01 02:04:50;;;;;;;10.05;4.20;;;;;;;10.51;100.00;100125.44;5093889;28;20040;-45
2023/11/01 02:07:18;;;;;;;10.65;3.70;;;;;;;10.50;100.00;100123.78;5093819;28;20043;-46
2023/11/01 02:09:46;;;;;;;10.50;4.07;;;;;;;10.53;100.00;100123.53;5093969;28;20105;-49
2023/11/01 02:12:15;;;;;;;9.52;3.78;;;;;;;10.52;100.00;100116.59;5093628;28;20059;-47
2023/11/01 02:14:46;;;;;;;11.35;3.50;;;;;;;10.54;100.00;100119.97;5093620;28;20069;-47
2023/11/01 02:17:14;;;;;;;8.90;3.03;;;;;;;10.51;100.00;100114.91;5093644;28;20044;-46
2023/11/01 02:19:42;;;;;;;9.90;3.30;;;;;;;10.49;100.00;100115.03;5093569;28;20433;-45
2023/11/01 02:22:12;;;;;;;11.25;3.60;;;;;;;10.46;100.00;100110.03;5093367;28;20089;-46
2023/11/01 02:24:41;;;;;;;10.02;3.90;;;;;;;10.44;100.00;100106.69;5093312;28;20410;-48
2023/11/01 02:27:10;;;;;;;9.25;3.80;;;;;;;10.46;100.00;100093.44;5093504;28;20055;-47
2023/11/01 02:29:38;;;;;;;17.33;4.25;;;;;;;10.43;100.00;100096.28;5093426;28;20048;-47
2023/11/01 02:32:08;;;;;;;10.70;4.07;;;;;;;10.39;100.00;100090.44;5093013;28;20115;-47
2023/11/01 02:34:37;;;;;;;12.05;3.70;;;;;;;10.39;100.00;100087.81;5092749;28;20040;-47
2023/11/01 02:37:05;;;;;;;14.30;4.07;;;;;;;10.41;100.00;100098.19;5093214;28;20566;-46
2023/11/01 02:39:34;;;;;;;14.90;3.50;;;;;;;10.43;100.00;100088.38;5093178;28;20048;-48
2023/11/01 02:42:04;;;;;;;13.23;3.97;;;;;;;10.39;100.00;100084.31;5092744;28;20155;-46
2023/11/01 02:44:32;;;;;;;12.50;3.97;;;;;;;10.39;100.00;100074.66;5093023;28;20076;-48
2023/11/01 02:47:00;;;;;;;11.93;3.88;;;;;;;10.37;100.00;100075.72;5093056;28;20480;-47
2023/11/01 02:49:29;;;;;;;12.73;3.83;;;;;;;10.40;100.00;100078.97;5093025;28;20491;-49
2023/11/01 02:51:57;;;;;;;11.48;4.00;;;;;;;10.39;100.00;100077.28;5092934;28;20495;-48
2023/11/01 02:54:28;;;;;;;8.43;3.72;;;;;;;10.41;100.00;100074.53;5091625;28;20052;-49
2023/11/01 02:56:58;;;;;;;12.77;3.88;;;;;;;10.39;100.00;100064.16;5091630;28;20048;-50
2023/11/01 02:59:28;;;;;;;10.27;3.33;;;;;;;10.44;100.00;100069.03;5092811;28;20071;-51
2023/11/01 03:01:57;;;;;;;14.15;3.50;;;;;;;10.43;100.00;100064.72;5091387;28;20101;-47
2023/11/01 03:04:25;;;;;;;13.68;3.33;;;;;;;10.40;100.00;100054.47;5092720;28;20044;-50
2023/11/01 03:06:54;;;;;;;10.25;3.70;;;;;;;10.41;100.00;100059.59;5092458;28;20051;-50
2023/11/01 03:09:22;;;;;;;8.70;3.55;;;;;;;10.36;100.00;100046.00;5092636;28;20415;-49
2023/11/01 03:11:51;;;;;;;11.50;4.03;;;;;;;10.37;100.00;100047.63;5092909;28;20048;-48
2023/11/01 03:14:19;;;;;;;11.55;4.15;;;;;;;10.37;100.00;100045.00;5092685;28;20039;-48
2023/11/01 03:16:48;;;;;;;12.13;4.03;;;;;;;10.36;100.00;100038.09;5092479;28;20040;-51
2023/11/01 03:19:17;;;;;;;10.80;3.85;;;;;;;10.39;100.00;100034.38;5091058;28;20467;-48
2023/11/01 03:21:45;;;;;;;13.98;4.18;;;;;;;10.44;100.00;100021.72;5089089;28;20044;-56
2023/11/01 03:24:13;;;;;;;10.20;3.60;;;;;;;10.38;100.00;100024.84;5090295;28;20055;-56
2023/11/01 03:26:42;;;;;;;12.02;4.30;;;;;;;10.37;100.00;100017.91;5091585;28;20047;-56
2023/11/01 03:29:10;;;;;;;11.82;4.70;;;;;;;10.38;100.00;100022.22;5092496;28;20062;-55
2023/11/01 03:31:38;;;;;;;11.50;4.82;;;;;;;10.40;100.00;100026.41;5092452;28;20439;-55
2023/11/01 03:34:07;;;;;;;12.35;4.90;;;;;;;10.44;100.00;100017.31;5092279;28;20499;-55
2023/11/01 03:36:36;;;;;;;12.75;4.05;;;;;;;10.41;100.00;100012.28;5092420;28;20433;-56
2023/11/01 03:39:06;;;;;;;8.93;3.50;;;;;;;10.42;100.00;100013.13;5092134;28;20094;-51
2023/11/01 03:41:35;;;;;;;14.30;3.83;;;;;;;10.45;100.00;100015.50;5091858;28;20056;-48
2023/11/01 03:44:04;;;;;;;8.95;3.45;;;;;;;10.45;100.00;100013.72;5092051;28;20052;-47
2023/11/01 03:46:32;;;;;;;10.50;3.38;;;;;;;10.46;100.00;100001.41;5092017;28;20398;-50
2023/11/01 03:49:01;;;;;;;9.40;3.10;;;;;;;10.47;100.00;100006.56;5092006;28;20039;-46
2023/11/01 03:51:30;;;;;;;10.82;3.40;;;;;;;10.45;100.00;100000.56;5091957;28;20044;-47
2023/11/01 03:54:01;;;;;;;8.88;2.92;;;;;;;10.44;100.00;99991.03;5091821;28;20130;-47
2023/11/01 03:56:29;;;;;;;8.93;3.15;;;;;;;10.47;100.00;99995.19;5091569;28;20051;-48
2023/11/01 03:58:58;;;;;;;12.38;3.28;;;;;;;10.43;100.00;99993.75;5091475;28;20111;-51
2023/11/01 04:01:26;;;;;;;9.20;2.78;;;;;;;10.42;100.00;99986.84;5091948;28;20490;-46
2023/11/01 04:03:55;;;;;;;8.57;3.10;;;;;;;10.42;100.00;99982.41;5090565;28;20051;-47
2023/11/01 04:06:23;;;;;;;10.02;3.22;;;;;;;10.47;100.00;99990.78;5091585;28;20043;-47
2023/11/01 04:08:52;;;;;;;12.80;3.50;;;;;;;10.47;100.00;99982.91;5091688;28;20545;-47
2023/11/01 04:11:21;;;;;;;9.45;3.35;;;;;;;10.43;100.00;99980.63;5091638;28;20515;-50
2023/11/01 04:13:49;;;;;;;11.55;3.70;;;;;;;10.47;100.00;99979.41;5091794;28;20054;-47
2023/11/01 04:16:20;;;;;;;13.55;3.95;;;;;;;10.48;100.00;99974.06;5091708;28;20047;-49
2023/11/01 04:18:49;;;;;;;8.57;3.50;;;;;;;10.48;100.00;99968.81;5091572;28;20070;-47
2023/11/01 04:21:17;;;;;;;9.77;3.05;;;;;;;10.50;100.00;99966.06;5091609;28;20044;-47
2023/11/01 04:23:45;;;;;;;8.30;3.60;;;;;;;10.50;100.00;99963.41;5091644;28;20125;-49
2023/11/01 04:26:15;;;;;;;9.48;3.20;;;;;;;10.49;100.00;99959.13;5091490;28;20044;-48
2023/11/01 04:28:43;;;;;;;8.20;3.10;;;;;;;10.51;100.00;99957.19;5091755;28;20036;-51
2023/11/01 04:31:11;;;;;;;7.68;3.10;;;;;;;10.51;100.00;99959.00;5091623;28;20054;-48
2023/11/01 04:33:39;;;;;;;8.85;2.70;;;;;;;10.48;100.00;99963.53;5091610;28;20040;-48
2023/11/01 04:36:09;;;;;;;8.73;2.80;;;;;;;10.49;100.00;99957.31;5091496;28;20402;-48
2023/11/01 04:38:37;;;;;;;5.80;3.00;;;;;;;10.50;100.00;99945.03;5094324;28;20343;-48
2023/11/01 04:41:11;;;;;;;8.40;3.10;;;;;;;10.50;100.00;99947.66;5095619;28;20097;-46
2023/11/01 04:43:43;;;;;;;5.30;3.15;;;;;;;10.50;100.00;99950.28;5095756;28;20052;-48
2023/11/01 04:46:11;;;;;;;5.93;2.85;;;;;;;10.47;100.00;99946.09;5095414;28;20135;-47
2023/11/01 04:48:39;;;;;;;9.98;3.47;;;;;;;10.57;100.00;99943.56;5095243;28;20068;-49
2023/11/01 04:51:08;;;;;;;6.07;3.10;;;;;;;10.55;100.00;99939.38;5093945;28;20450;-48
2023/11/01 04:53:37;;;;;;;7.70;3.13;;;;;;;10.54;100.00;99932.44;5095177;28;20097;-51
2023/11/01 04:56:06;;;;;;;5.85;3.22;;;;;;;10.56;100.00;99931.38;5095316;28;20491;-46
2023/11/01 04:58:38;;;;;;;4.90;2.40;;;;;;;10.56;100.00;99933.19;5095099;28;20097;-47
2023/11/01 05:01:07;;;;;;;7.03;3.13;;;;;;;10.58;100.00;99926.84;5094968;28;20093;-56
2023/11/01 05:03:37;;;;;;;8.85;2.88;;;;;;;10.56;100.00;99930.53;5094253;28;20812;-56
2023/11/01 05:06:06;;;;;;;4.20;2.53;;;;;;;10.58;100.00;99924.22;5091731;28;20517;-56
2023/11/01 05:08:35;;;;;;;5.20;3.00;;;;;;;10.59;100.00;99931.16;5092056;28;20090;-56
2023/11/01 05:11:04;;;;;;;5.60;3.03;;;;;;;10.62;100.00;99920.38;5095087;28;20051;-56
2023/11/01 05:13:36;;;;;;;6.67;3.47;;;;;;;10.57;100.00;99921.72;5095101;28;20070;-55
2023/11/01 05:16:08;;;;;;;6.55;3.53;;;;;;;10.60;100.00;99914.41;5094063;28;20145;-56
2023/11/01 05:18:36;;;;;;;5.05;3.00;;;;;;;10.59;100.00;99907.50;5091688;28;20068;-56
2023/11/01 05:21:06;;;;;;;5.72;3.47;;;;;;;10.62;100.00;99901.97;5093537;28;20040;-56
2023/11/01 05:23:34;;;;;;;6.60;3.83;;;;;;;10.62;100.00;99907.22;5094811;28;20040;-57
2023/11/01 05:26:02;;;;;;;6.57;3.72;;;;;;;10.64;100.00;99905.31;5094825;28;20071;-56
2023/11/01 05:28:30;;;;;;;7.20;3.50;;;;;;;10.65;100.00;99903.53;5094770;28;20056;-56
2023/11/01 05:30:58;;;;;;;7.57;4.10;;;;;;;10.69;100.00;99902.31;5094970;28;20057;-56
2023/11/01 05:33:28;;;;;;;7.80;3.63;;;;;;;10.72;100.00;99891.53;5094710;28;20048;-57
2023/11/01 05:35:56;;;;;;;7.25;3.92;;;;;;;10.76;100.00;99894.78;5094847;28;20382;-57
2023/11/01 05:38:26;;;;;;;9.63;4.03;;;;;;;10.76;100.00;99894.78;5094383;28;20040;-46
2023/11/01 05:40:55;;;;;;;9.55;4.63;;;;;;;10.78;100.00;99891.06;5094339;28;20441;-57
2023/11/01 05:43:23;;;;;;;9.98;4.57;;;;;;;10.82;100.00;99889.00;5094233;28;20453;-56
2023/11/01 05:45:51;;;;;;;9.00;4.60;;;;;;;10.83;100.00;99888.88;5094672;28;20070;-56
2023/11/01 05:48:19;;;;;;;8.50;4.63;;;;;;;10.85;100.00;99885.28;5094134;28;20521;-57
2023/11/01 05:50:49;;;;;;;11.15;4.93;;;;;;;10.86;100.00;99889.59;5093421;28;20063;-49
2023/11/01 05:53:17;;;;;;;9.77;4.55;;;;;;;10.84;100.00;99884.47;5093917;28;20056;-51
2023/11/01 05:55:46;;;;;;;10.88;4.75;;;;;;;10.86;100.00;99885.16;5093893;28;20407;-50
2023/11/01 05:58:31;;;;;;;9.77;4.72;;;;;;;10.87;100.00;99878.94;5093808;28;20105;-49
2023/11/01 06:01:00;;;;;;;9.80;4.90;;;;;;;10.87;100.00;99886.00;5094396;28;20399;-51
2023/11/01 06:03:28;;;;;;;10.40;5.05;;;;;;;10.90;100.00;99883.94;5093989;28;20605;-49
2023/11/01 06:05:58;;;;;;;13.23;5.50;;;;;;;10.96;100.00;99890.50;5093708;28;20554;-47
2023/11/01 06:08:27;;;;;;;10.52;5.13;;;;;;;10.95;100.00;99881.78;5093405;28;20044;-46
2023/11/01 06:10:55;;;;;;;12.38;5.20;;;;;;;11.04;100.00;99889.88;5093644;28;20522;-46
2023/11/01 06:13:23;;;;;;;12.45;5.18;;;;;;;11.02;100.00;99890.00;5093574;28;20062;-52
2023/11/01 06:15:59;;;;;;;8.93;4.55;;;;;;;11.07;100.00;99892.25;5093623;28;20046;-46
2023/11/01 06:18:27;;;;;;;9.75;4.72;;;;;;;11.08;100.00;99888.66;5093501;28;20059;-46
2023/11/01 06:20:56;;;;;;;13.95;4.90;;;;;;;11.08;100.00;99894.75;5093659;28;20507;-46
2023/11/01 06:23:25;;;;;;;13.73;4.65;;;;;;;11.09;100.00;99896.44;5092220;28;20042;-46
2023/11/01 06:25:54;;;;;;;11.07;4.70;;;;;;;11.10;100.00;99892.03;5093589;28;20056;-47
2023/11/01 06:28:22;;;;;;;13.48;4.72;;;;;;;11.08;100.00;99896.56;5093236;28;20444;-48
2023/11/01 06:30:51;;;;;;;12.52;4.70;;;;;;;11.13;100.00;99894.38;5092808;28;20052;-48
2023/11/01 06:33:19;;;;;;;12.93;4.47;;;;;;;11.16;100.00;99900.22;5089073;28;20360;-47
2023/11/01 06:35:47;;;;;;;14.02;4.40;;;;;;;11.17;100.00;99898.44;5091399;28;20044;-46
2023/11/01 06:38:16;;;;;;;15.73;4.35;;;;;;;11.19;100.00;99901.75;5093205;28;20055;-48
2023/11/01 06:40:45;;;;;;;12.18;4.50;;;;;;;11.22;100.00;99895.41;5093185;28;20048;-46
2023/11/01 06:43:13;;;;;;;12.80;4.55;;;;;;;11.19;100.00;99896.50;5092213;28;20083;-46
2023/11/01 06:45:41;;;;;;;14.55;4.43;;;;;;;11.25;100.00;99896.00;5089832;28;20071;-47
2023/11/01 06:48:11;;;;;;;16.83;4.55;;;;;;;11.24;100.00;99896.13;5090445;28;20047;-47
2023/11/01 06:50:40;;;;;;;12.57;4.07;;;;;;;11.25;100.00;99898.63;5089683;28;20059;-46
2023/11/01 06:53:09;;;;;;;13.13;3.92;;;;;;;11.28;100.00;99901.00;5089121;28;20075;-45
2023/11/01 06:55:37;;;;;;;13.00;3.95;;;;;;;11.30;100.00;99903.50;5091145;28;20055;-45
2023/11/01 06:58:06;;;;;;;14.48;4.13;;;;;;;11.28;100.00;99901.00;5092865;28;20048;-46
2023/11/01 07:00:35;;;;;;;14.07;4.38;;;;;;;11.29;100.00;99905.31;5092898;28;20122;-46
2023/11/01 07:03:03;;;;;;;12.93;4.35;;;;;;;11.34;100.00;99910.19;5092823;28;20056;-47
2023/11/01 07:05:35;;;;;;;15.27;4.63;;;;;;;11.33;100.00;99912.00;5092844;28;20129;-47
2023/11/01 07:08:03;;;;;;;19.17;4.90;;;;;;;11.34;100.00;99904.91;5092753;28;20499;-49
2023/11/01 07:10:31;;;;;;;14.35;4.45;;;;;;;11.38;100.00;99910.78;5092682;28;20133;-47
2023/11/01 07:13:00;;;;;;;14.40;4.72;;;;;;;11.38;100.00;99914.22;5092567;28;20044;-46
2023/11/01 07:15:29;;;;;;;18.00;5.07;;;;;;;11.39;100.00;99912.44;5092527;28;20411;-46
2023/11/01 07:17:57;;;;;;;16.48;4.25;;;;;;;11.45;100.00;99907.50;5092484;28;20056;-47
2023/11/01 07:20:26;;;;;;;17.15;4.93;;;;;;;11.46;100.00;99914.41;5091015;28;20533;-46
2023/11/01 07:22:54;;;;;;;16.10;4.65;;;;;;;11.44;100.00;99907.66;5092646;28;20445;-46
2023/11/01 07:25:24;;;;;;;16.63;4.70;;;;;;;11.49;100.00;99908.06;5092309;28;20044;-46
2023/11/01 07:27:52;;;;;;;14.05;4.05;;;;;;;11.48;100.00;99916.94;5090718;28;20055;-47
2023/11/01 07:30:21;;;;;;;13.63;5.32;;;;;;;11.49;100.00;99914.19;5088463;28;20469;-47
2023/11/01 07:32:52;;;;;;;11.10;4.55;;;;;;;11.48;100.00;99909.06;5091714;28;20058;-46
2023/11/01 07:35:20;;;;;;;14.95;4.50;;;;;;;11.50;100.00;99909.75;5087611;28;20642;-50
2023/11/01 07:37:48;;;;;;;15.15;4.90;;;;;;;11.53;100.00;99906.03;5088138;28;20052;-50
2023/11/01 07:40:16;;;;;;;17.52;3.95;;;;;;;11.51;100.00;99906.16;5088300;28;20043;-49
2023/11/01 07:42:46;;;;;;;13.18;3.80;;;;;;;11.51;100.00;99906.16;5092114;28;20060;-49
2023/11/01 07:45:15;;;;;;;12.80;3.67;;;;;;;11.53;100.00;99906.03;5088843;28;20052;-47
2023/11/01 07:47:43;;;;;;;12.18;4.18;;;;;;;11.56;100.00;99900.50;5089137;28;20055;-56
2023/11/01 07:50:13;;;;;;;13.88;3.33;;;;;;;11.53;100.00;99914.75;5091846;28;20147;-57
2023/11/01 07:52:41;;;;;;;15.50;3.50;;;;;;;11.53;100.00;99912.13;5092280;28;20036;-57
2023/11/01 07:55:10;;;;;;;11.65;3.30;;;;;;;11.54;100.00;99915.59;5092193;28;20407;-56
2023/11/01 07:57:38;;;;;;;13.02;4.15;;;;;;;11.55;100.00;99918.09;5090906;28;20063;-56
2023/11/01 08:00:08;;;;;;;13.65;3.05;;;;;;;11.59;100.00;99911.63;5092171;28;20037;-56
2023/11/01 08:02:36;;;;;;;12.80;2.75;;;;;;;11.61;100.00;99906.22;5092295;28;20428;-55
2023/11/01 08:05:05;;;;;;;11.88;2.90;;;;;;;11.63;100.00;99910.38;5092139;28;20541;-56
2023/11/01 08:07:35;;;;;;;14.75;3.45;;;;;;;11.66;100.00;99910.13;5092020;28;20044;-55
2023/11/01 08:10:04;;;;;;;15.27;3.00;;;;;;;11.69;100.00;99910.84;5092094;28;20060;-56
2023/11/01 08:12:32;;;;;;;16.00;3.40;;;;;;;11.69;100.00;99902.94;5092699;28;20105;-56
2023/11/01 08:15:00;;;;;;;12.38;3.00;;;;;;;11.78;100.00;99904.75;5096351;28;20499;-56
2023/11/01 08:17:29;;;;;;;10.73;2.83;;;;;;;11.82;100.00;99904.41;5096004;28;20044;-45
2023/11/01 08:19:57;;;;;;;15.48;3.08;;;;;;;11.84;100.00;99901.63;5096138;28;20040;-46
2023/11/01 08:22:27;;;;;;;13.60;2.88;;;;;;;11.86;100.00;99894.41;5095735;28;20093;-46
2023/11/01 08:24:57;;;;;;;14.38;2.78;;;;;;;11.94;100.00;99902.56;5095929;28;20131;-48
2023/11/01 08:27:25;;;;;;;8.27;2.10;;;;;;;11.97;100.00;99891.75;5091752;28;20135;-47
2023/11/01 08:29:54;;;;;;;14.73;3.45;;;;;;;12.00;100.00;99891.47;5092007;28;20376;-47
2023/11/01 08:32:22;;;;;;;11.15;2.88;;;;;;;12.06;100.00;99884.00;5095474;28;20048;-45
2023/11/01 08:34:50;;;;;;;15.73;2.70;;;;;;;12.05;100.00;99883.16;5095785;28;20109;-45
2023/11/01 08:37:18;;;;;;;12.50;2.58;;;;;;;12.08;100.00;99885.53;5092437;28;20051;-50
2023/11/01 08:39:47;;;;;;;13.35;2.92;;;;;;;12.11;100.00;99877.38;5091314;28;20145;-49
2023/11/01 08:42:16;;;;;;;13.48;2.80;;;;;;;12.13;100.00;99878.09;5095348;28;20056;-47
2023/11/01 08:44:44;;;;;;;16.38;3.25;;;;;;;12.14;100.00;99884.16;5095655;28;20052;-46
2023/11/01 08:47:33;;;;;;;12.10;3.00;;;;;;;12.15;100.00;99885.84;5095467;28;20109;-45
2023/11/01 08:50:01;;;;;;;14.95;2.85;;;;;;;12.21;100.00;99880.03;5095021;28;20036;-46
2023/11/01 08:52:32;;;;;;;15.77;3.00;;;;;;;12.22;100.00;99879.06;5095299;28;20044;-45
2023/11/01 08:55:01;;;;;;;15.45;2.70;;;;;;;12.26;100.00;99880.47;5095216;28;20054;-48
2023/11/01 08:57:30;;;;;;;10.13;2.58;;;;;;;12.26;100.00;99888.38;5095126;28;20376;-47
2023/11/01 08:59:58;;;;;;;9.02;2.15;;;;;;;12.27;100.00;99886.56;5095266;28;20055;-47
2023/11/01 09:02:28;;;;;;;12.75;3.10;;;;;;;12.28;100.00;99888.22;5094927;28;20064;-47
2023/11/01 09:04:57;;;;;;;10.85;2.30;;;;;;;12.32;100.00;99892.28;5095157;28;20059;-47
2023/11/01 09:07:25;;;;;;;14.95;2.80;;;;;;;12.33;100.00;99886.84;5093336;28;20117;-45
2023/11/01 09:09:55;;;;;;;10.65;2.55;;;;;;;12.38;100.00;99885.63;5091098;28;20048;-56
2023/11/01 09:12:27;;;;;;;15.10;2.45;;;;;;;12.38;100.00;99885.63;5094159;28;20134;-56
2023/11/01 09:14:56;;;;;;;9.18;2.50;;;;;;;12.43;100.00;99899.25;5095109;28;20040;-48
2023/11/01 09:17:25;;;;;;;12.35;2.22;;;;;;;12.44;100.00;99885.09;5094909;28;20048;-46
2023/11/01 09:19:54;;;;;;;11.63;2.33;;;;;;;12.41;100.00;99888.00;5094995;28;20068;-55
2023/11/01 09:22:22;;;;;;;16.15;2.65;;;;;;;12.44;100.00;99879.81;5093650;28;20392;-54
2023/11/01 09:24:50;;;;;;;13.48;2.97;;;;;;;12.43;100.00;99888.69;5089392;28;20059;-55
2023/11/01 09:27:19;;;;;;;12.65;2.22;;;;;;;12.47;100.00;99876.91;5091645;28;20062;-55
2023/11/01 09:29:47;;;;;;;12.60;2.35;;;;;;;12.57;100.00;99882.19;5094323;28;20036;-56
2023/11/01 09:32:17;;;;;;;11.10;2.47;;;;;;;12.62;100.00;99879.97;5092702;28;20040;-55
2023/11/01 09:34:45;;;;;;;10.98;2.25;;;;;;;12.66;100.00;99884.00;5091587;28;20048;-55
2023/11/01 09:37:13;;;;;;;13.43;2.50;;;;;;;12.66;100.00;99882.19;5093075;28;20047;-56
2023/11/01 09:39:41;;;;;;;15.57;2.50;;;;;;;12.70;100.00;99880.13;5094614;28;20512;-56
2023/11/01 09:42:18;;;;;;;12.75;2.55;;;;;;;12.70;100.00;99876.69;5094299;28;20048;-56
2023/11/01 09:44:48;;;;;;;9.02;2.33;;;;;;;12.76;100.00;99876.97;5094096;28;20047;-56
2023/11/01 09:47:18;;;;;;;12.23;1.98;;;;;;;12.80;100.00;99878.34;5090408;28;20076;-56
2023/11/01 09:49:48;;;;;;;9.48;2.20;;;;;;;12.82;100.00;99867.66;5091148;28;20047;-53
2023/11/01 09:52:16;;;;;;;9.43;2.20;;;;;;;12.87;100.00;99875.16;5090152;28;20039;-54
2023/11/01 09:54:45;;;;;;;12.05;2.17;;;;;;;12.91;100.00;99880.03;5093675;28;20423;-55
2023/11/01 09:57:15;;;;;;;9.63;1.90;;;;;;;13.04;100.00;99871.00;5090908;28;20087;-54
2023/11/01 09:59:44;;;;;;;9.30;1.90;;;;;;;13.14;100.00;99871.81;5091382;28;20050;-56
2023/11/01 10:02:13;;;;;;;10.15;2.10;;;;;;;13.15;100.00;99870.84;5094091;28;20036;-54
2023/11/01 10:04:43;;;;;;;10.57;1.90;;;;;;;13.22;100.00;99876.41;5094240;28;20052;-54
2023/11/01 10:07:11;;;;;;;9.93;2.15;;;;;;;13.27;100.00;99867.06;5094116;28;20047;-55
2023/11/01 10:09:41;;;;;;;16.38;1.90;;;;;;;13.25;100.00;99863.75;5093553;28;20384;-53
2023/11/01 10:12:09;;;;;;;11.38;1.90;;;;;;;13.29;100.00;99866.94;5090888;28;20517;-53
2023/11/01 10:14:38;;;;;;;8.93;1.75;;;;;;;13.34;100.00;99848.84;5092671;28;20592;-54
2023/11/01 10:17:06;;;;;;;12.15;1.80;;;;;;;13.37;100.00;99853.88;5093894;28;20860;-54
2023/11/01 10:19:34;;;;;;;8.45;1.75;;;;;;;13.40;100.00;99842.19;5093676;28;20048;-54
2023/11/01 10:22:05;;;;;;;9.82;2.30;;;;;;;13.33;100.00;99842.75;5093793;28;20036;-53
2023/11/01 10:24:33;;;;;;;7.72;2.35;;;;;;;13.35;100.00;99837.31;5093623;28;20560;-54
2023/11/01 10:27:01;;;;;;;9.70;2.17;;;;;;;13.38;100.00;99838.88;5093555;28;20070;-55
2023/11/01 10:29:30;;;;;;;11.25;2.20;;;;;;;13.38;100.00;99836.25;5092072;28;20082;-55
2023/11/01 10:31:59;;;;;;;8.80;2.08;;;;;;;13.42;100.00;99833.16;5093484;28;20480;-53
2023/11/01 10:34:29;;;;;;;11.73;2.15;;;;;;;13.42;100.00;99824.41;5093328;28;20462;-54
2023/11/01 10:36:58;;;;;;;9.43;2.17;;;;;;;13.42;100.00;99822.59;5093207;28;20147;-53
2023/11/01 10:39:28;;;;;;;11.90;2.60;;;;;;;13.53;100.00;99827.69;5093265;28;20036;-54
2023/11/01 10:41:57;;;;;;;11.20;2.20;;;;;;;13.50;100.00;99821.91;5093252;28;20058;-55
2023/11/01 10:44:25;;;;;;;11.20;2.80;;;;;;;13.54;100.00;99815.34;5093338;28;20448;-54
2023/11/01 10:46:55;;;;;;;9.88;2.17;;;;;;;13.54;100.00;99815.34;5093274;28;20058;-46
2023/11/01 10:49:26;;;;;;;11.70;2.53;;;;;;;13.55;100.00;99809.06;5092899;28;20388;-46
2023/11/01 10:51:54;;;;;;;9.52;2.35;;;;;;;13.59;100.00;99806.97;5093085;28;20380;-45
2023/11/01 10:54:23;;;;;;;10.25;2.13;;;;;;;13.64;100.00;99802.91;5092880;28;20036;-46
2023/11/01 10:56:53;;;;;;;12.38;2.38;;;;;;;13.62;100.00;99796.97;5092956;28;20117;-45
2023/11/01 10:59:30;;;;;;;10.75;2.28;;;;;;;13.62;100.00;99796.13;5092685;28;20077;-45
2023/11/01 11:02:07;;;;;;;12.45;2.10;;;;;;;13.63;100.00;99787.22;5092962;28;20402;-45
2023/11/01 11:04:41;;;;;;;8.27;2.00;;;;;;;13.64;100.00;99789.72;5092755;28;20066;-44
2023/11/01 11:07:20;;;;;;;10.65;1.92;;;;;;;13.69;100.00;99779.53;5092791;28;20036;-46
2023/11/01 11:10:21;;;;;;;9.13;2.35;;;;;;;13.76;100.00;99779.78;5092746;28;20489;-45
2023/11/01 11:13:28;;;;;;;8.48;1.67;;;;;;;13.84;100.00;99774.59;5092764;28;20398;-45
2023/11/01 11:15:59;;;;;;;13.55;2.42;;;;;;;13.93;100.00;99764.94;5092277;28;20052;-47
2023/11/01 11:18:51;;;;;;;11.50;2.15;;;;;;;14.03;100.00;99754.34;5091069;28;20547;-44
2023/11/01 11:22:02;;;;;;;10.35;2.05;;;;;;;14.15;100.00;99757.59;5092433;28;20487;-44
2023/11/01 11:24:52;;;;;;;9.70;1.90;;;;;;;14.15;100.00;99749.66;5092445;28;20044;-46
2023/11/01 11:27:51;;;;;;;7.30;2.00;;;;;;;14.22;100.00;99745.44;5092422;28;20533;-45